Time;durP1;ratioP1;P1;durP2;ratioP2;P2;SDS_P1;SDS_P2;PMS_P1;PMS_P2;Temp;Humidity;BMP_temperature;BMP_pressure;BME280_temperature;BME280_humidity;BME280_pressure;Samples;Min_cycle;Max_cycle;Signal;HPM_P1;HPM_P2
2022/02/26 00:02:54;;;;;;;1.07;1.00;;;0.80;99.90;;;;;;6339499;28;20587;-77
2022/02/26 00:06:00;;;;;;;1.17;1.10;;;0.80;99.90;;;;;;6339365;28;20272;-77
2022/02/26 00:09:06;;;;;;;1.30;1.30;;;0.90;99.90;;;;;;6339184;28;20296;-77
2022/02/26 00:12:13;;;;;;;2.10;1.40;;;0.80;99.90;;;;;;6338676;28;20288;-77
2022/02/26 00:15:19;;;;;;;1.07;1.07;;;0.80;99.90;;;;;;6340122;28;20273;-76
2022/02/26 00:18:26;;;;;;;3.40;0.90;;;0.70;99.90;;;;;;6339132;28;20301;-76
2022/02/26 00:21:31;;;;;;;1.70;1.00;;;0.70;99.90;;;;;;6339448;28;20364;-76
2022/02/26 00:24:37;;;;;;;0.80;0.80;;;0.70;99.90;;;;;;6338763;28;20301;-77
2022/02/26 00:27:42;;;;;;;1.13;1.03;;;0.60;99.90;;;;;;6338840;28;20464;-77
2022/02/26 00:30:48;;;;;;;1.20;1.20;;;0.60;99.90;;;;;;6339671;28;20275;-77
2022/02/26 00:33:55;;;;;;;1.47;1.13;;;0.60;99.90;;;;;;6339822;28;20461;-76
2022/02/26 00:37:00;;;;;;;1.00;1.00;;;0.60;99.90;;;;;;6338862;28;20271;-77
2022/02/26 00:40:08;;;;;;;0.90;0.90;;;0.60;99.90;;;;;;6338531;28;20268;-77
2022/02/26 00:43:13;;;;;;;1.00;1.00;;;0.50;99.90;;;;;;6338111;28;20299;-76
2022/02/26 00:46:19;;;;;;;0.93;0.93;;;0.50;99.90;;;;;;6339123;28;20278;-76
2022/02/26 00:52:49;;;;;;;0.97;0.97;;;0.40;99.90;;;;;;6337823;28;20355;-77
2022/02/26 00:55:54;;;;;;;0.97;0.90;;;0.40;99.90;;;;;;6338127;28;20272;-76
2022/02/26 00:58:59;;;;;;;1.30;1.20;;;0.40;99.90;;;;;;6337837;28;20295;-77
2022/02/26 01:02:06;;;;;;;1.63;1.53;;;0.30;99.90;;;;;;6319332;28;20275;-78
2022/02/26 01:05:14;;;;;;;1.13;1.13;;;0.30;99.90;;;;;;6338389;28;20273;-77
2022/02/26 01:08:19;;;;;;;1.20;1.20;;;0.20;99.90;;;;;;6337739;28;20328;-77
2022/02/26 01:11:24;;;;;;;2.10;1.37;;;0.20;99.90;;;;;;6338194;28;20291;-76
2022/02/26 01:14:33;;;;;;;1.43;1.10;;;0.20;99.90;;;;;;6337767;28;20299;-76
2022/02/26 01:17:40;;;;;;;3.27;1.10;;;0.30;99.90;;;;;;6336873;28;20412;-76
2022/02/26 01:20:48;;;;;;;1.23;1.23;;;0.30;99.90;;;;;;6337779;28;20461;-77
2022/02/26 01:23:54;;;;;;;1.13;1.00;;;0.30;99.90;;;;;;6337295;28;20299;-77
2022/02/26 01:26:59;;;;;;;1.73;1.07;;;0.30;99.90;;;;;;6336420;28;20272;-77
2022/02/26 01:30:06;;;;;;;1.07;1.00;;;0.30;99.90;;;;;;6337500;28;20276;-76
2022/02/26 01:33:18;;;;;;;1.23;0.90;;;0.20;99.90;;;;;;6337740;28;20300;-76
2022/02/26 01:36:26;;;;;;;4.00;1.13;;;0.20;99.90;;;;;;6338415;28;20271;-76
2022/02/26 01:39:31;;;;;;;1.10;1.10;;;0.10;99.90;;;;;;6337040;28;20303;-75
2022/02/26 01:42:37;;;;;;;3.17;1.10;;;0.20;99.90;;;;;;6337057;28;20291;-76
2022/02/26 01:45:42;;;;;;;3.13;1.20;;;0.10;99.90;;;;;;6338294;28;20264;-76
2022/02/26 01:48:47;;;;;;;1.30;1.20;;;0.10;99.90;;;;;;6337119;28;20297;-76
2022/02/26 01:51:55;;;;;;;1.20;1.10;;;0.10;99.90;;;;;;6336789;28;20276;-76
2022/02/26 01:55:00;;;;;;;2.17;1.30;;;0.00;99.90;;;;;;6336584;28;20297;-76
2022/02/26 01:58:06;;;;;;;1.13;1.13;;;0.00;99.90;;;;;;6337128;28;20424;-76
2022/02/26 02:01:13;;;;;;;1.50;1.40;;;0.10;99.90;;;;;;6337708;28;20272;-77
2022/02/26 02:04:20;;;;;;;1.10;1.10;;;0.00;99.90;;;;;;6337378;28;20311;-76
2022/02/26 02:07:27;;;;;;;2.07;1.17;;;-0.10;99.90;;;;;;6337093;28;20372;-76
2022/02/26 02:10:34;;;;;;;3.30;1.13;;;-0.10;99.90;;;;;;6337417;28;20280;-75
2022/02/26 02:13:39;;;;;;;2.10;1.30;;;-0.20;99.90;;;;;;6337131;28;20572;-75
2022/02/26 02:16:44;;;;;;;1.20;1.10;;;-0.20;99.90;;;;;;6338030;28;20275;-76
2022/02/26 02:19:50;;;;;;;1.13;1.00;;;-0.10;99.90;;;;;;6337552;28;20306;-76
2022/02/26 02:22:58;;;;;;;1.30;1.30;;;-0.10;99.90;;;;;;6336575;28;20292;-75
2022/02/26 02:26:03;;;;;;;1.37;1.30;;;-0.10;99.90;;;;;;6336795;28;20271;-75
2022/02/26 02:29:10;;;;;;;1.13;1.13;;;-0.10;99.90;;;;;;6336528;28;20598;-76
2022/02/26 02:32:16;;;;;;;1.67;1.20;;;-0.10;99.90;;;;;;6335874;28;20570;-76
2022/02/26 02:35:29;;;;;;;1.90;1.23;;;-0.10;99.90;;;;;;6335749;28;20508;-76
2022/02/26 02:38:36;;;;;;;2.03;1.20;;;-0.20;99.90;;;;;;6335841;28;20296;-75
2022/02/26 02:41:43;;;;;;;3.33;1.20;;;-0.10;99.90;;;;;;6336742;28;20267;-75
2022/02/26 02:44:49;;;;;;;1.27;1.23;;;-0.10;99.90;;;;;;6336027;28;20306;-76
2022/02/26 02:47:55;;;;;;;1.13;1.10;;;-0.20;99.90;;;;;;6335954;28;20295;-76
2022/02/26 02:51:00;;;;;;;1.33;1.20;;;-0.20;99.90;;;;;;6336153;28;20270;-75
2022/02/26 02:54:07;;;;;;;1.40;1.30;;;-0.30;99.90;;;;;;6335652;28;20298;-75
2022/02/26 02:57:14;;;;;;;1.00;1.00;;;-0.30;99.90;;;;;;6335295;28;20271;-75
2022/02/26 03:00:20;;;;;;;1.20;1.20;;;-0.40;99.90;;;;;;6335912;28;20449;-75
2022/02/26 03:03:26;;;;;;;0.97;0.97;;;-0.30;99.90;;;;;;6336204;28;20289;-76
2022/02/26 03:06:34;;;;;;;3.77;1.20;;;-0.40;99.90;;;;;;6334967;28;20282;-75
2022/02/26 03:09:41;;;;;;;1.50;1.27;;;-0.40;99.90;;;;;;6335772;28;20294;-75
2022/02/26 03:12:51;;;;;;;1.20;1.20;;;-0.40;99.90;;;;;;6336018;28;20300;-76
2022/02/26 03:15:58;;;;;;;2.10;1.10;;;-0.50;99.90;;;;;;6336496;28;20288;-75
2022/02/26 03:19:04;;;;;;;1.33;1.20;;;-0.50;99.90;;;;;;6336413;28;20293;-75
2022/02/26 03:22:13;;;;;;;1.23;1.23;;;-0.60;99.90;;;;;;6335161;28;20313;-75
2022/02/26 03:25:23;;;;;;;1.70;1.43;;;-0.60;99.90;;;;;;6336462;28;20270;-75
2022/02/26 03:28:31;;;;;;;3.07;1.33;;;-0.60;99.90;;;;;;6335651;28;20295;-76
2022/02/26 03:31:37;;;;;;;1.47;1.37;;;-0.60;99.90;;;;;;6336503;28;20562;-75
2022/02/26 03:34:42;;;;;;;1.70;1.60;;;-0.70;99.90;;;;;;6335380;28;20301;-76
2022/02/26 03:37:48;;;;;;;1.00;1.00;;;-0.70;99.90;;;;;;6317656;28;20289;-76
2022/02/26 03:40:55;;;;;;;1.43;1.20;;;-0.70;99.90;;;;;;6338464;28;20275;-76
2022/02/26 03:44:00;;;;;;;1.60;1.20;;;-0.70;99.90;;;;;;6340409;28;20294;-76
2022/02/26 03:47:13;;;;;;;2.10;1.10;;;-0.70;99.90;;;;;;6340022;28;20279;-76
2022/02/26 03:50:18;;;;;;;1.40;1.30;;;-0.80;99.90;;;;;;6341342;28;20548;-76
2022/02/26 03:53:24;;;;;;;2.40;1.10;;;-0.80;99.90;;;;;;6339684;28;20300;-76
2022/02/26 03:56:32;;;;;;;1.10;1.10;;;-0.80;99.90;;;;;;6339833;28;20380;-75
2022/02/26 03:59:38;;;;;;;2.60;1.30;;;-0.90;99.90;;;;;;6340454;28;20313;-75
2022/02/26 04:02:44;;;;;;;1.20;1.20;;;-0.90;99.90;;;;;;6329824;28;20309;-76
2022/02/26 04:05:50;;;;;;;1.10;1.10;;;-0.90;99.90;;;;;;6338115;28;20279;-76
2022/02/26 04:08:55;;;;;;;1.20;1.10;;;-0.90;99.90;;;;;;6339367;28;20294;-76
2022/02/26 04:12:03;;;;;;;1.30;1.20;;;-0.90;99.90;;;;;;6339336;28;20265;-76
2022/02/26 04:15:10;;;;;;;0.90;0.90;;;-0.90;99.90;;;;;;6340212;28;20575;-75
2022/02/26 04:18:15;;;;;;;1.47;1.10;;;-0.90;99.90;;;;;;6339513;28;20452;-76
2022/02/26 04:21:22;;;;;;;2.23;1.07;;;-0.90;99.90;;;;;;6296851;28;20306;-76
2022/02/26 04:24:27;;;;;;;1.37;1.10;;;-1.00;99.90;;;;;;6289199;28;20301;-76
2022/02/26 04:27:34;;;;;;;4.37;1.20;;;-1.10;99.90;;;;;;6289502;28;20590;-75
2022/02/26 04:30:40;;;;;;;1.23;1.23;;;-1.00;99.90;;;;;;6289596;28;20284;-75
2022/02/26 04:33:45;;;;;;;1.33;1.20;;;-1.10;99.90;;;;;;6289576;28;20299;-76
2022/02/26 04:36:51;;;;;;;1.97;1.20;;;-1.10;99.90;;;;;;6301303;28;20289;-75
2022/02/26 04:39:56;;;;;;;3.33;0.97;;;-1.10;99.90;;;;;;6314523;28;20456;-75
2022/02/26 04:43:03;;;;;;;1.40;1.30;;;-1.10;99.90;;;;;;6313829;28;20299;-76
2022/02/26 04:46:12;;;;;;;1.30;1.20;;;-1.10;99.90;;;;;;6314829;28;20273;-75
2022/02/26 04:49:17;;;;;;;1.70;1.30;;;-1.20;99.90;;;;;;6314648;28;20305;-75
2022/02/26 04:52:22;;;;;;;2.63;1.37;;;-1.20;99.90;;;;;;6313928;28;20467;-76
2022/02/26 04:55:29;;;;;;;2.83;1.20;;;-1.20;99.90;;;;;;6313844;28;20271;-75
2022/02/26 04:58:37;;;;;;;1.40;1.30;;;-1.20;99.90;;;;;;6313647;28;20291;-76
2022/02/26 05:01:42;;;;;;;2.00;1.43;;;-1.20;99.90;;;;;;6313820;28;20275;-76
2022/02/26 05:04:48;;;;;;;1.33;1.23;;;-1.30;99.90;;;;;;6313838;28;20294;-76
2022/02/26 05:07:53;;;;;;;1.07;1.00;;;-1.30;99.90;;;;;;6313884;28;20307;-76
2022/02/26 05:10:58;;;;;;;1.63;1.20;;;-1.30;99.90;;;;;;6313739;28;20542;-75
2022/02/26 05:14:05;;;;;;;1.73;1.13;;;-1.30;99.90;;;;;;6313181;28;20297;-75
2022/02/26 05:17:10;;;;;;;2.47;1.20;;;-1.30;99.90;;;;;;6312375;28;20298;-76
2022/02/26 05:20:15;;;;;;;2.23;1.00;;;-1.30;99.90;;;;;;6321329;28;20317;-76
2022/02/26 05:23:21;;;;;;;3.60;1.50;;;-1.30;99.90;;;;;;6337379;28;20290;-76
2022/02/26 05:26:27;;;;;;;1.27;1.17;;;-1.30;99.90;;;;;;6336272;28;20273;-76
2022/02/26 05:29:34;;;;;;;1.40;1.30;;;-1.40;99.90;;;;;;6337520;28;20472;-76
2022/02/26 05:32:40;;;;;;;1.63;1.00;;;-1.40;99.90;;;;;;6336788;28;20293;-76
2022/02/26 05:35:46;;;;;;;5.40;1.30;;;-1.40;99.90;;;;;;6337727;28;20435;-76
2022/02/26 05:38:51;;;;;;;2.10;1.30;;;-1.40;99.90;;;;;;6338288;28;20296;-76
2022/02/26 05:41:57;;;;;;;2.10;1.17;;;-1.40;99.90;;;;;;6337903;28;20269;-77
2022/02/26 05:45:04;;;;;;;2.90;1.30;;;-1.40;99.90;;;;;;6337898;28;20274;-76
2022/02/26 05:48:16;;;;;;;1.03;0.93;;;-1.40;99.90;;;;;;6337196;28;20309;-76
2022/02/26 05:51:22;;;;;;;1.40;1.23;;;-1.40;99.90;;;;;;6338290;28;20270;-76
2022/02/26 05:54:27;;;;;;;3.13;1.17;;;-1.40;99.90;;;;;;6337606;28;20298;-77
2022/02/26 05:57:33;;;;;;;1.20;1.20;;;-1.40;99.90;;;;;;6336982;28;20322;-75
2022/02/26 06:00:41;;;;;;;2.27;1.27;;;-1.50;99.90;;;;;;6337718;28;20269;-76
2022/02/26 06:03:46;;;;;;;1.20;1.20;;;-1.50;99.90;;;;;;6336272;28;20591;-75
2022/02/26 06:06:55;;;;;;;2.57;1.20;;;-1.50;99.90;;;;;;6337586;28;20576;-75
2022/02/26 06:10:00;;;;;;;1.30;1.20;;;-1.50;99.90;;;;;;6336856;28;20278;-75
2022/02/26 06:13:07;;;;;;;2.93;1.20;;;-1.50;99.90;;;;;;6337592;28;20294;-75
2022/02/26 06:16:14;;;;;;;1.43;1.33;;;-1.50;99.90;;;;;;6338070;28;20275;-75
2022/02/26 06:19:20;;;;;;;2.27;1.37;;;-1.50;99.90;;;;;;6336558;28;20298;-75
2022/02/26 06:22:25;;;;;;;1.83;1.40;;;-1.50;99.90;;;;;;6337075;28;20305;-76
2022/02/26 06:25:31;;;;;;;5.67;1.40;;;-1.50;99.90;;;;;;6336652;28;20202;-75
2022/02/26 06:28:37;;;;;;;3.47;1.27;;;-1.50;99.90;;;;;;6336720;28;20301;-75
2022/02/26 06:31:43;;;;;;;2.77;1.53;;;-1.50;99.90;;;;;;6336728;28;20269;-75
2022/02/26 06:34:49;;;;;;;1.17;1.10;;;-1.50;99.90;;;;;;6336879;28;20486;-75
2022/02/26 06:37:55;;;;;;;1.50;1.40;;;-1.40;99.90;;;;;;6337025;28;20312;-76
2022/02/26 06:41:00;;;;;;;2.63;1.20;;;-1.40;99.90;;;;;;6337198;28;20441;-75
2022/02/26 06:44:06;;;;;;;6.23;1.87;;;-1.40;99.90;;;;;;6336522;28;20301;-76
2022/02/26 06:47:13;;;;;;;1.63;1.20;;;-1.40;99.90;;;;;;6318540;28;20277;-75
2022/02/26 06:50:19;;;;;;;2.07;1.27;;;-1.40;99.90;;;;;;6337608;28;20408;-75
2022/02/26 06:53:24;;;;;;;3.33;1.57;;;-1.30;99.90;;;;;;6336735;28;20293;-75
2022/02/26 06:56:29;;;;;;;1.47;1.30;;;-1.40;99.90;;;;;;6336397;28;20277;-75
2022/02/26 06:59:35;;;;;;;2.20;1.43;;;-1.30;99.90;;;;;;6336086;28;20477;-76
2022/02/26 07:02:42;;;;;;;2.80;1.30;;;-1.30;99.90;;;;;;6319196;28;20581;-75
2022/02/26 07:05:48;;;;;;;2.67;1.67;;;-1.30;99.90;;;;;;6336611;28;20266;-75
2022/02/26 07:08:53;;;;;;;1.50;1.40;;;-1.20;99.90;;;;;;6336742;28;20308;-75
2022/02/26 07:11:59;;;;;;;2.57;1.30;;;-1.20;99.90;;;;;;6336566;28;20262;-75
2022/02/26 07:15:06;;;;;;;3.13;1.47;;;-1.20;99.90;;;;;;6338440;28;20277;-75
2022/02/26 07:18:20;;;;;;;1.93;1.47;;;-1.20;99.90;;;;;;6340796;28;20481;-76
2022/02/26 07:21:26;;;;;;;3.07;1.27;;;-1.10;99.90;;;;;;6340602;28;20588;-76
2022/02/26 07:24:31;;;;;;;8.77;1.50;;;-1.10;99.90;;;;;;6340639;28;20294;-76
2022/02/26 07:27:37;;;;;;;1.70;1.60;;;-1.10;99.90;;;;;;6341129;28;20296;-76
2022/02/26 07:30:43;;;;;;;1.70;1.33;;;-1.10;99.90;;;;;;6341233;28;20274;-76
2022/02/26 07:33:51;;;;;;;1.40;1.27;;;-1.00;99.90;;;;;;6340752;28;20301;-77
2022/02/26 07:36:56;;;;;;;6.07;1.40;;;-1.00;99.90;;;;;;6341450;28;20274;-76
2022/02/26 07:40:03;;;;;;;5.40;1.53;;;-1.00;99.90;;;;;;6340489;28;20329;-76
2022/02/26 07:43:11;;;;;;;1.63;1.23;;;-0.90;99.90;;;;;;6340012;28;20290;-76
2022/02/26 07:46:17;;;;;;;1.57;1.47;;;-0.90;99.90;;;;;;6340785;28;20268;-75
2022/02/26 07:49:25;;;;;;;3.20;1.57;;;-0.90;99.90;;;;;;6340164;28;20304;-76
2022/02/26 07:52:32;;;;;;;9.17;1.83;;;-0.80;99.90;;;;;;6340035;28;20294;-75
2022/02/26 07:55:38;;;;;;;1.33;1.27;;;-0.80;99.90;;;;;;6340556;28;20438;-76
2022/02/26 07:58:43;;;;;;;2.03;1.50;;;-0.80;99.90;;;;;;6339259;28;20490;-76
2022/02/26 08:01:50;;;;;;;1.50;1.40;;;-0.70;99.90;;;;;;6339604;28;20275;-76
2022/02/26 08:04:56;;;;;;;2.10;1.37;;;-0.70;99.90;;;;;;6339790;28;20298;-76
2022/02/26 08:08:02;;;;;;;1.23;1.17;;;-0.60;99.90;;;;;;6339692;28;20306;-76
2022/02/26 08:11:09;;;;;;;5.43;1.73;;;-0.60;99.90;;;;;;6339654;28;20262;-75
2022/02/26 08:14:14;;;;;;;5.67;1.30;;;-0.60;99.90;;;;;;6339268;28;20354;-75
2022/02/26 08:17:19;;;;;;;1.70;1.57;;;-0.50;99.90;;;;;;6340231;28;20290;-76
2022/02/26 08:20:26;;;;;;;2.77;1.27;;;-0.50;99.90;;;;;;6339989;28;20309;-75
2022/02/26 08:23:34;;;;;;;3.03;1.47;;;-0.50;99.90;;;;;;6338916;28;20290;-75
2022/02/26 08:26:39;;;;;;;1.90;1.50;;;-0.50;99.90;;;;;;6338885;28;20449;-76
2022/02/26 08:29:44;;;;;;;2.23;1.63;;;-0.40;99.90;;;;;;6338543;28;20313;-75
2022/02/26 08:32:50;;;;;;;2.67;1.40;;;-0.40;99.90;;;;;;6338167;28;20290;-75
2022/02/26 08:35:57;;;;;;;2.17;1.50;;;-0.40;99.90;;;;;;6339285;28;20272;-74
2022/02/26 08:39:02;;;;;;;2.77;1.40;;;-0.30;99.90;;;;;;6338602;28;20297;-76
2022/02/26 08:42:09;;;;;;;5.27;1.20;;;-0.30;99.90;;;;;;6338407;28;20272;-75
2022/02/26 08:45:15;;;;;;;3.40;1.63;;;-0.30;99.90;;;;;;6339032;28;20270;-78
2022/02/26 08:48:22;;;;;;;1.87;1.33;;;-0.20;99.90;;;;;;6338226;28;20306;-75
2022/02/26 08:51:29;;;;;;;3.17;1.23;;;-0.10;99.90;;;;;;6338816;28;20270;-75
2022/02/26 08:54:34;;;;;;;2.40;1.20;;;0.00;99.50;;;;;;6338539;28;20290;-75
2022/02/26 08:57:39;;;;;;;3.10;1.30;;;0.00;99.90;;;;;;6337909;28;20290;-75
2022/02/26 09:00:46;;;;;;;2.40;1.40;;;0.10;99.90;;;;;;6339216;28;20294;-76
2022/02/26 09:03:51;;;;;;;5.73;1.40;;;0.00;99.90;;;;;;6353694;28;20297;-75
2022/02/26 09:06:58;;;;;;;4.87;1.50;;;0.00;99.90;;;;;;6337858;28;20290;-75
2022/02/26 09:10:05;;;;;;;1.53;1.40;;;-0.10;99.90;;;;;;6336475;28;20284;-75
2022/02/26 09:13:12;;;;;;;2.20;1.50;;;-0.10;99.90;;;;;;6337414;28;20299;-75
2022/02/26 09:16:17;;;;;;;1.97;1.13;;;0.10;99.90;;;;;;6338153;28;20267;-75
2022/02/26 09:19:23;;;;;;;1.53;1.50;;;0.00;99.90;;;;;;6319483;28;20450;-76
2022/02/26 09:22:29;;;;;;;4.57;1.30;;;0.10;99.90;;;;;;6336912;28;20290;-76
2022/02/26 09:25:35;;;;;;;2.13;1.67;;;0.20;99.90;;;;;;6337842;28;20447;-76
2022/02/26 09:28:40;;;;;;;2.50;1.43;;;0.10;99.90;;;;;;6337290;28;20295;-76
2022/02/26 09:31:50;;;;;;;2.83;2.00;;;0.10;99.90;;;;;;6337299;28;20587;-76
2022/02/26 09:35:00;;;;;;;1.80;1.50;;;0.10;99.90;;;;;;6358131;28;20273;-76
2022/02/26 09:38:07;;;;;;;5.00;1.27;;;0.20;99.90;;;;;;6361117;28;20300;-77
2022/02/26 09:41:14;;;;;;;2.90;1.30;;;0.20;99.90;;;;;;6362330;28;20587;-76
2022/02/26 09:44:20;;;;;;;4.27;1.47;;;0.30;99.90;;;;;;6361852;28;20301;-76
2022/02/26 09:47:26;;;;;;;1.47;1.37;;;0.30;99.90;;;;;;6362852;28;20290;-76
2022/02/26 09:50:32;;;;;;;2.83;1.53;;;0.40;98.70;;;;;;6362715;28;20271;-76
2022/02/26 09:53:42;;;;;;;12.70;2.00;;;0.40;99.30;;;;;;6362443;28;20298;-76
2022/02/26 09:56:47;;;;;;;2.20;1.30;;;0.40;99.90;;;;;;6362584;28;20266;-76
2022/02/26 09:59:54;;;;;;;2.67;1.60;;;0.50;99.50;;;;;;6362713;28;20306;-76
2022/02/26 10:03:00;;;;;;;2.23;1.20;;;0.60;98.20;;;;;;6362228;28;20293;-76
2022/02/26 10:06:09;;;;;;;2.43;1.57;;;0.70;97.70;;;;;;6362419;28;20452;-76
2022/02/26 10:09:16;;;;;;;3.20;1.47;;;0.60;98.50;;;;;;6362544;28;20298;-76
2022/02/26 10:12:27;;;;;;;3.30;1.50;;;0.60;99.30;;;;;;6334164;28;20324;-76
2022/02/26 10:15:36;;;;;;;4.27;1.40;;;0.80;94.20;;;;;;6303881;28;20268;-73
2022/02/26 10:18:52;;;;;;;1.63;1.50;;;0.80;95.70;;;;;;6310905;28;20374;-77
2022/02/26 10:22:01;;;;;;;3.43;1.77;;;1.00;95.40;;;;;;6311261;28;20310;-78
2022/02/26 10:25:12;;;;;;;8.30;1.70;;;0.90;95.50;;;;;;6361125;28;20275;-77
2022/02/26 10:28:18;;;;;;;3.50;1.30;;;1.00;96.60;;;;;;6361598;28;20294;-77
2022/02/26 10:31:23;;;;;;;5.13;1.40;;;0.90;98.30;;;;;;6362595;28;20272;-76
2022/02/26 10:34:35;;;;;;;2.33;1.30;;;1.00;97.80;;;;;;6362019;28;20304;-76
2022/02/26 10:37:40;;;;;;;1.73;1.40;;;1.10;95.10;;;;;;6361909;28;20582;-78
2022/02/26 10:40:53;;;;;;;3.67;1.57;;;1.10;96.80;;;;;;6362270;28;20571;-76
2022/02/26 10:44:01;;;;;;;4.53;1.50;;;1.30;94.70;;;;;;6361628;28;20304;-76
2022/02/26 10:47:10;;;;;;;2.53;1.60;;;1.30;96.30;;;;;;6362012;28;20451;-77
2022/02/26 10:50:18;;;;;;;3.27;1.43;;;1.40;94.70;;;;;;6365004;28;20276;-75
2022/02/26 10:53:27;;;;;;;2.87;1.40;;;1.40;95.90;;;;;;6366448;28;20301;-77
2022/02/26 10:56:37;;;;;;;6.53;1.40;;;1.40;96.00;;;;;;6368882;28;20261;-78
2022/02/26 10:59:46;;;;;;;3.93;1.60;;;1.40;96.30;;;;;;6367008;28;20295;-78
2022/02/26 11:03:09;;;;;;;4.13;1.50;;;1.40;96.20;;;;;;6368061;28;20292;-79
2022/02/26 11:06:17;;;;;;;8.03;1.50;;;1.50;95.50;;;;;;6349925;28;20271;-77
2022/02/26 11:09:23;;;;;;;4.70;1.40;;;1.50;96.10;;;;;;6366118;28;20292;-76
2022/02/26 11:12:32;;;;;;;2.13;1.40;;;1.60;96.00;;;;;;6341908;28;20301;-78
2022/02/26 11:15:40;;;;;;;1.30;1.30;;;1.70;95.40;;;;;;6341447;28;20273;-79
2022/02/26 11:18:48;;;;;;;5.03;1.33;;;1.70;94.80;;;;;;6340639;28;20305;-77
2022/02/26 11:21:54;;;;;;;1.77;1.63;;;1.70;95.30;;;;;;6340293;28;20500;-77
2022/02/26 11:25:00;;;;;;;2.40;1.40;;;1.70;95.40;;;;;;6340717;28;20569;-78
2022/02/26 11:28:07;;;;;;;4.07;1.70;;;1.80;94.40;;;;;;6341302;28;20297;-79
2022/02/26 11:31:16;;;;;;;2.00;1.33;;;1.80;94.90;;;;;;6342096;28;20449;-79
2022/02/26 11:34:26;;;;;;;1.30;1.30;;;1.90;93.50;;;;;;6341323;28;20292;-78
2022/02/26 11:37:38;;;;;;;4.90;1.37;;;1.90;93.90;;;;;;6341287;28;20467;-78
2022/02/26 11:40:43;;;;;;;3.40;1.50;;;1.90;94.90;;;;;;6341595;28;20556;-78
2022/02/26 11:43:52;;;;;;;2.20;1.60;;;1.90;95.70;;;;;;6341101;28;20297;-78
2022/02/26 11:47:12;;;;;;;1.53;1.27;;;2.00;93.10;;;;;;6340695;28;20277;-77
2022/02/26 11:50:23;;;;;;;1.83;1.70;;;2.10;93.60;;;;;;6339603;28;20269;-77
2022/02/26 11:53:29;;;;;;;9.20;1.80;;;2.00;94.30;;;;;;6339979;28;20303;-77
2022/02/26 11:56:45;;;;;;;7.77;1.53;;;2.10;92.80;;;;;;6340498;28;20273;-75
2022/02/26 11:59:52;;;;;;;5.70;1.60;;;2.10;91.60;;;;;;6340425;28;20322;-76
2022/02/26 12:03:30;;;;;;;3.20;1.70;;;2.00;93.10;;;;;;6338811;28;20292;-76
2022/02/26 12:06:39;;;;;;;3.07;1.20;;;2.10;91.30;;;;;;6340810;28;20437;-75
2022/02/26 12:09:58;;;;;;;1.47;1.33;;;2.20;88.70;;;;;;6341034;28;20466;-76
2022/02/26 12:13:03;;;;;;;7.97;1.20;;;2.20;85.40;;;;;;6364301;28;20384;-77
2022/02/26 12:16:25;;;;;;;1.60;1.40;;;2.30;86.80;;;;;;6366108;28;20268;-77
2022/02/26 12:19:46;;;;;;;6.67;1.40;;;2.20;91.50;;;;;;6364656;28;20297;-76
2022/02/26 12:22:51;;;;;;;2.70;1.23;;;2.20;93.90;;;;;;6364378;28;20359;-75
2022/02/26 12:26:03;;;;;;;6.50;1.53;;;2.20;91.10;;;;;;6365157;28;20542;-77
2022/02/26 12:29:08;;;;;;;2.97;1.10;;;2.30;92.30;;;;;;6365738;28;20294;-77
2022/02/26 12:32:17;;;;;;;3.83;1.40;;;2.30;92.20;;;;;;6363571;28;20269;-77
2022/02/26 12:35:26;;;;;;;2.20;1.30;;;2.40;88.50;;;;;;6364381;28;20286;-77
2022/02/26 12:38:32;;;;;;;1.77;1.10;;;2.40;83.10;;;;;;6364465;28;20289;-77
2022/02/26 12:41:38;;;;;;;2.53;1.10;;;2.40;82.40;;;;;;6364191;28;20275;-76
2022/02/26 12:44:44;;;;;;;3.27;1.40;;;2.40;88.10;;;;;;6365169;28;20590;-77
2022/02/26 12:47:51;;;;;;;8.23;1.43;;;2.30;92.00;;;;;;6364757;28;20292;-77
2022/02/26 12:50:56;;;;;;;2.70;1.40;;;2.40;90.70;;;;;;6366443;28;20284;-77
2022/02/26 12:54:02;;;;;;;7.03;1.63;;;2.40;90.40;;;;;;6364709;28;20398;-77
2022/02/26 12:57:08;;;;;;;3.10;1.43;;;2.40;92.70;;;;;;6364774;28;20278;-77
2022/02/26 13:00:20;;;;;;;2.17;1.63;;;2.40;94.50;;;;;;6364055;28;20266;-77
2022/02/26 13:03:27;;;;;;;2.53;1.80;;;2.40;94.50;;;;;;6365161;28;20596;-79
2022/02/26 13:06:33;;;;;;;6.40;1.63;;;2.40;93.20;;;;;;6364947;28;20270;-78
2022/02/26 13:09:51;;;;;;;6.80;1.60;;;2.40;93.20;;;;;;6364462;28;20450;-80
2022/02/26 13:12:57;;;;;;;4.83;1.70;;;2.50;93.90;;;;;;6363854;28;20301;-78
2022/02/26 13:16:02;;;;;;;1.50;1.40;;;2.50;93.80;;;;;;6365463;28;20277;-77
2022/02/26 13:19:09;;;;;;;7.00;2.00;;;2.50;93.80;;;;;;6362998;28;20487;-77
2022/02/26 13:22:15;;;;;;;2.43;1.23;;;2.40;94.90;;;;;;6363156;28;20545;-76
2022/02/26 13:25:21;;;;;;;2.80;1.70;;;2.50;92.80;;;;;;6363863;28;20269;-78
2022/02/26 13:28:26;;;;;;;1.57;1.47;;;2.50;93.40;;;;;;6363268;28;20293;-76
2022/02/26 13:31:35;;;;;;;3.33;1.63;;;2.40;94.40;;;;;;6362301;28;20452;-76
2022/02/26 13:34:43;;;;;;;3.50;1.50;;;2.40;94.40;;;;;;6363331;28;20302;-77
2022/02/26 13:37:49;;;;;;;3.17;1.50;;;2.40;94.80;;;;;;6363981;28;20290;-78
2022/02/26 13:40:56;;;;;;;4.87;1.70;;;2.40;95.30;;;;;;6363259;28;20271;-76
2022/02/26 13:44:01;;;;;;;4.50;1.70;;;2.40;95.70;;;;;;6362466;28;20297;-75
2022/02/26 13:47:10;;;;;;;4.57;1.47;;;2.40;96.00;;;;;;6361790;28;20269;-76
2022/02/26 13:50:19;;;;;;;11.37;1.87;;;2.40;95.30;;;;;;6362363;28;20569;-76
2022/02/26 13:53:26;;;;;;;2.57;2.17;;;2.40;95.40;;;;;;6362198;28;20293;-76
2022/02/26 13:56:31;;;;;;;4.13;1.40;;;2.40;96.10;;;;;;6362720;28;20270;-76
2022/02/26 13:59:36;;;;;;;2.50;1.43;;;2.40;95.90;;;;;;6362403;28;20289;-76
2022/02/26 14:02:43;;;;;;;6.50;2.00;;;2.40;95.50;;;;;;6362008;28;20297;-77
2022/02/26 14:05:50;;;;;;;14.33;2.43;;;2.40;95.30;;;;;;6362096;28;20268;-77
2022/02/26 14:08:56;;;;;;;6.37;1.50;;;2.40;94.50;;;;;;6361761;28;20460;-76
2022/02/26 14:12:05;;;;;;;5.23;1.63;;;2.40;95.30;;;;;;6361746;28;20270;-76
2022/02/26 14:15:14;;;;;;;5.73;1.77;;;2.50;96.70;;;;;;6362232;28;20281;-76
2022/02/26 14:18:22;;;;;;;13.07;1.80;;;2.50;97.50;;;;;;6361887;28;20303;-77
2022/02/26 14:21:29;;;;;;;6.50;1.50;;;2.50;97.10;;;;;;6362029;28;20304;-77
2022/02/26 14:24:41;;;;;;;5.63;1.57;;;2.50;97.20;;;;;;6361048;28;20300;-76
2022/02/26 14:27:48;;;;;;;2.93;1.70;;;2.50;96.40;;;;;;6361815;28;20310;-76
2022/02/26 14:30:55;;;;;;;7.60;1.50;;;2.50;95.30;;;;;;6361481;28;20543;-76
2022/02/26 14:34:01;;;;;;;4.73;1.47;;;2.50;92.80;;;;;;6361748;28;20302;-76
2022/02/26 14:37:10;;;;;;;3.37;1.33;;;2.50;92.80;;;;;;6361627;28;20277;-76
2022/02/26 14:40:19;;;;;;;5.40;1.10;;;2.40;94.30;;;;;;6361506;28;20450;-76
2022/02/26 14:43:24;;;;;;;2.97;1.30;;;2.40;92.60;;;;;;6361272;28;20301;-76
2022/02/26 14:46:29;;;;;;;2.73;1.43;;;2.40;92.20;;;;;;6362010;28;20267;-76
2022/02/26 14:49:35;;;;;;;6.67;1.80;;;2.40;91.60;;;;;;6361461;28;20293;-76
2022/02/26 14:52:42;;;;;;;4.97;1.13;;;2.30;91.70;;;;;;6361378;28;20303;-76
2022/02/26 14:55:48;;;;;;;3.67;1.17;;;2.30;94.00;;;;;;6361863;28;20301;-76
2022/02/26 14:58:54;;;;;;;3.20;1.40;;;2.30;87.60;;;;;;6361561;28;20368;-76
2022/02/26 15:01:59;;;;;;;5.20;1.20;;;2.40;90.90;;;;;;6361527;28;20272;-76
2022/02/26 15:05:15;;;;;;;1.63;1.53;;;2.30;92.80;;;;;;6360460;28;20487;-77
2022/02/26 15:08:22;;;;;;;5.40;1.20;;;2.30;93.80;;;;;;6361660;28;20307;-77
2022/02/26 15:11:27;;;;;;;1.63;1.50;;;2.20;93.40;;;;;;6361889;28;20442;-76
2022/02/26 15:14:33;;;;;;;7.03;1.20;;;2.30;93.40;;;;;;6361258;28;20297;-76
2022/02/26 15:17:39;;;;;;;6.87;1.13;;;2.10;93.80;;;;;;6360558;28;20292;-76
2022/02/26 15:20:44;;;;;;;5.17;1.30;;;2.10;92.80;;;;;;6361639;28;20301;-76
2022/02/26 15:23:51;;;;;;;4.67;1.20;;;2.10;94.10;;;;;;6359038;28;20300;-77
2022/02/26 15:26:56;;;;;;;4.33;1.27;;;2.00;95.40;;;;;;6361083;28;20517;-78
2022/02/26 15:30:01;;;;;;;7.03;1.43;;;2.00;96.80;;;;;;6361360;28;20297;-77
2022/02/26 15:33:07;;;;;;;5.73;1.60;;;2.00;95.50;;;;;;6360411;28;20296;-77
2022/02/26 15:36:13;;;;;;;10.97;1.40;;;2.00;93.60;;;;;;6362972;28;20270;-77
2022/02/26 15:39:21;;;;;;;2.90;1.07;;;1.80;98.70;;;;;;6365418;28;20294;-78
2022/02/26 15:42:28;;;;;;;7.50;1.47;;;1.60;99.90;;;;;;6364666;28;20308;-76
2022/02/26 15:45:34;;;;;;;4.67;1.70;;;1.60;99.90;;;;;;6365972;28;20290;-76
2022/02/26 15:48:39;;;;;;;5.70;2.53;;;1.60;99.90;;;;;;6365649;28;20296;-76
2022/02/26 15:51:45;;;;;;;5.40;1.70;;;1.50;99.90;;;;;;6366066;28;20272;-76
2022/02/26 15:54:53;;;;;;;1.80;1.50;;;1.40;99.90;;;;;;6365581;28;20297;-76
2022/02/26 15:57:58;;;;;;;8.13;1.63;;;1.30;99.90;;;;;;6364861;28;20290;-76
2022/02/26 16:01:03;;;;;;;9.73;1.60;;;1.30;99.90;;;;;;6366104;28;20269;-77
2022/02/26 16:04:12;;;;;;;5.43;1.70;;;1.20;99.90;;;;;;6365171;28;20293;-77
2022/02/26 16:07:18;;;;;;;2.70;2.10;;;1.20;99.90;;;;;;6365242;28;20273;-76
2022/02/26 16:10:24;;;;;;;15.77;2.40;;;1.10;99.90;;;;;;6365735;28;20292;-76
2022/02/26 16:13:30;;;;;;;11.43;1.93;;;1.10;99.90;;;;;;6365443;28;20300;-76
2022/02/26 16:16:37;;;;;;;7.40;2.50;;;1.00;99.90;;;;;;6365000;28;20277;-76
2022/02/26 16:19:45;;;;;;;6.30;1.87;;;0.90;99.90;;;;;;6364935;28;20306;-76
2022/02/26 16:22:50;;;;;;;6.33;2.00;;;0.90;99.90;;;;;;6364886;28;20302;-76
2022/02/26 16:25:57;;;;;;;4.70;1.93;;;0.90;99.90;;;;;;6367239;28;20447;-76